sensor_id;sensor_type;location;lat;lon;timestamp;P1;durP1;ratioP1;P2;durP2;ratioP2
25127;SDS011;13107;51.304;6.866;2023-07-13T00:01:50;3.30;;;0.82;;
25127;SDS011;13107;51.304;6.866;2023-07-13T00:05:59;5.53;;;1.20;;
25127;SDS011;13107;51.304;6.866;2023-07-13T00:10:02;5.90;;;1.20;;
25127;SDS011;13107;51.304;6.866;2023-07-13T00:14:05;9.02;;;1.20;;
25127;SDS011;13107;51.304;6.866;2023-07-13T00:18:07;4.30;;;1.00;;
25127;SDS011;13107;51.304;6.866;2023-07-13T00:22:09;4.68;;;1.00;;
25127;SDS011;13107;51.304;6.866;2023-07-13T00:26:11;8.45;;;1.10;;
25127;SDS011;13107;51.304;6.866;2023-07-13T00:30:14;4.68;;;0.90;;
25127;SDS011;13107;51.304;6.866;2023-07-13T00:34:17;4.57;;;0.98;;
25127;SDS011;13107;51.304;6.866;2023-07-13T00:38:19;1.62;;;0.68;;
25127;SDS011;13107;51.304;6.866;2023-07-13T00:42:21;5.00;;;1.20;;
25127;SDS011;13107;51.304;6.866;2023-07-13T00:46:25;4.22;;;1.40;;
25127;SDS011;13107;51.304;6.866;2023-07-13T00:50:30;4.57;;;1.10;;
25127;SDS011;13107;51.304;6.866;2023-07-13T00:54:34;5.30;;;1.17;;
25127;SDS011;13107;51.304;6.866;2023-07-13T00:58:42;6.07;;;1.42;;
25127;SDS011;13107;51.304;6.866;2023-07-13T01:02:45;9.45;;;1.62;;
25127;SDS011;13107;51.304;6.866;2023-07-13T01:06:48;4.45;;;1.23;;
25127;SDS011;13107;51.304;6.866;2023-07-13T01:10:53;3.25;;;0.90;;
25127;SDS011;13107;51.304;6.866;2023-07-13T01:15:00;5.35;;;1.62;;
25127;SDS011;13107;51.304;6.866;2023-07-13T01:19:03;11.45;;;1.40;;
25127;SDS011;13107;51.304;6.866;2023-07-13T01:23:16;4.05;;;1.20;;
25127;SDS011;13107;51.304;6.866;2023-07-13T01:27:22;3.55;;;1.25;;
25127;SDS011;13107;51.304;6.866;2023-07-13T01:31:26;3.58;;;1.25;;
25127;SDS011;13107;51.304;6.866;2023-07-13T01:35:28;4.87;;;1.25;;
25127;SDS011;13107;51.304;6.866;2023-07-13T01:39:29;6.37;;;1.23;;
25127;SDS011;13107;51.304;6.866;2023-07-13T01:43:32;7.68;;;1.40;;
25127;SDS011;13107;51.304;6.866;2023-07-13T01:47:34;7.07;;;1.58;;
25127;SDS011;13107;51.304;6.866;2023-07-13T01:51:36;5.75;;;1.30;;
25127;SDS011;13107;51.304;6.866;2023-07-13T01:55:38;6.18;;;1.27;;
25127;SDS011;13107;51.304;6.866;2023-07-13T01:59:40;3.72;;;0.95;;
25127;SDS011;13107;51.304;6.866;2023-07-13T02:03:42;4.32;;;1.02;;
25127;SDS011;13107;51.304;6.866;2023-07-13T02:07:44;4.62;;;1.30;;
25127;SDS011;13107;51.304;6.866;2023-07-13T02:11:46;6.75;;;1.17;;
25127;SDS011;13107;51.304;6.866;2023-07-13T02:15:50;6.22;;;1.73;;
25127;SDS011;13107;51.304;6.866;2023-07-13T02:19:52;3.12;;;1.10;;
25127;SDS011;13107;51.304;6.866;2023-07-13T02:23:55;3.80;;;1.02;;
25127;SDS011;13107;51.304;6.866;2023-07-13T02:27:58;4.62;;;1.20;;
25127;SDS011;13107;51.304;6.866;2023-07-13T02:32:00;3.20;;;1.25;;
25127;SDS011;13107;51.304;6.866;2023-07-13T02:36:02;7.80;;;1.87;;
25127;SDS011;13107;51.304;6.866;2023-07-13T02:40:06;4.78;;;1.08;;
25127;SDS011;13107;51.304;6.866;2023-07-13T02:44:10;4.22;;;1.20;;
25127;SDS011;13107;51.304;6.866;2023-07-13T02:48:14;4.05;;;1.10;;
25127;SDS011;13107;51.304;6.866;2023-07-13T02:52:16;7.30;;;1.10;;
25127;SDS011;13107;51.304;6.866;2023-07-13T02:56:28;6.85;;;1.77;;
25127;SDS011;13107;51.304;6.866;2023-07-13T03:00:31;4.70;;;1.12;;
25127;SDS011;13107;51.304;6.866;2023-07-13T03:04:34;4.10;;;1.62;;
25127;SDS011;13107;51.304;6.866;2023-07-13T03:08:37;5.18;;;1.10;;
25127;SDS011;13107;51.304;6.866;2023-07-13T03:12:39;3.80;;;1.37;;
25127;SDS011;13107;51.304;6.866;2023-07-13T03:16:41;6.47;;;1.52;;
25127;SDS011;13107;51.304;6.866;2023-07-13T03:20:43;5.53;;;1.48;;
25127;SDS011;13107;51.304;6.866;2023-07-13T03:24:45;5.10;;;1.25;;
25127;SDS011;13107;51.304;6.866;2023-07-13T03:28:47;4.07;;;1.27;;
25127;SDS011;13107;51.304;6.866;2023-07-13T03:32:49;7.90;;;1.37;;
25127;SDS011;13107;51.304;6.866;2023-07-13T03:36:53;6.95;;;1.33;;
25127;SDS011;13107;51.304;6.866;2023-07-13T03:40:56;5.15;;;1.12;;
25127;SDS011;13107;51.304;6.866;2023-07-13T03:44:58;3.85;;;1.37;;
25127;SDS011;13107;51.304;6.866;2023-07-13T03:48:59;3.80;;;1.02;;
25127;SDS011;13107;51.304;6.866;2023-07-13T03:53:02;8.10;;;1.30;;
25127;SDS011;13107;51.304;6.866;2023-07-13T03:57:04;6.05;;;1.62;;
25127;SDS011;13107;51.304;6.866;2023-07-13T04:01:08;6.32;;;1.10;;
25127;SDS011;13107;51.304;6.866;2023-07-13T04:05:11;4.82;;;1.17;;
25127;SDS011;13107;51.304;6.866;2023-07-13T04:09:12;7.93;;;1.37;;
25127;SDS011;13107;51.304;6.866;2023-07-13T04:13:14;6.97;;;1.23;;
25127;SDS011;13107;51.304;6.866;2023-07-13T04:17:16;3.50;;;0.93;;
25127;SDS011;13107;51.304;6.866;2023-07-13T04:21:18;11.23;;;1.52;;
25127;SDS011;13107;51.304;6.866;2023-07-13T04:25:20;6.05;;;1.30;;
25127;SDS011;13107;51.304;6.866;2023-07-13T04:29:22;6.10;;;1.52;;
25127;SDS011;13107;51.304;6.866;2023-07-13T04:33:25;8.73;;;1.48;;
25127;SDS011;13107;51.304;6.866;2023-07-13T04:37:28;7.90;;;1.42;;
25127;SDS011;13107;51.304;6.866;2023-07-13T04:41:30;5.53;;;1.35;;
25127;SDS011;13107;51.304;6.866;2023-07-13T04:45:32;5.85;;;1.40;;
25127;SDS011;13107;51.304;6.866;2023-07-13T04:49:36;4.65;;;1.50;;
25127;SDS011;13107;51.304;6.866;2023-07-13T04:53:38;5.82;;;1.45;;
25127;SDS011;13107;51.304;6.866;2023-07-13T04:57:40;8.25;;;1.50;;
25127;SDS011;13107;51.304;6.866;2023-07-13T05:01:42;6.72;;;1.33;;
25127;SDS011;13107;51.304;6.866;2023-07-13T05:05:53;6.18;;;1.90;;
25127;SDS011;13107;51.304;6.866;2023-07-13T05:09:56;6.00;;;1.70;;
25127;SDS011;13107;51.304;6.866;2023-07-13T05:13:58;8.60;;;1.52;;
25127;SDS011;13107;51.304;6.866;2023-07-13T05:18:02;8.45;;;1.75;;
25127;SDS011;13107;51.304;6.866;2023-07-13T05:22:04;10.45;;;1.98;;
25127;SDS011;13107;51.304;6.866;2023-07-13T05:26:06;8.55;;;1.62;;
25127;SDS011;13107;51.304;6.866;2023-07-13T05:30:10;5.95;;;1.65;;
25127;SDS011;13107;51.304;6.866;2023-07-13T05:34:13;8.38;;;1.67;;
25127;SDS011;13107;51.304;6.866;2023-07-13T05:38:14;7.60;;;1.90;;
25127;SDS011;13107;51.304;6.866;2023-07-13T05:42:16;6.32;;;1.90;;
25127;SDS011;13107;51.304;6.866;2023-07-13T05:46:18;11.07;;;2.17;;
25127;SDS011;13107;51.304;6.866;2023-07-13T05:50:20;9.80;;;2.12;;
25127;SDS011;13107;51.304;6.866;2023-07-13T05:54:22;10.13;;;2.50;;
25127;SDS011;13107;51.304;6.866;2023-07-13T05:58:24;8.82;;;1.92;;
25127;SDS011;13107;51.304;6.866;2023-07-13T06:02:27;13.23;;;2.85;;
25127;SDS011;13107;51.304;6.866;2023-07-13T06:06:29;9.93;;;2.20;;
25127;SDS011;13107;51.304;6.866;2023-07-13T06:10:37;9.05;;;1.95;;
25127;SDS011;13107;51.304;6.866;2023-07-13T06:14:39;9.45;;;1.70;;
25127;SDS011;13107;51.304;6.866;2023-07-13T06:18:41;10.38;;;2.05;;
25127;SDS011;13107;51.304;6.866;2023-07-13T06:22:43;10.45;;;2.42;;
25127;SDS011;13107;51.304;6.866;2023-07-13T06:26:45;7.45;;;1.87;;
25127;SDS011;13107;51.304;6.866;2023-07-13T06:30:47;10.13;;;2.10;;
25127;SDS011;13107;51.304;6.866;2023-07-13T06:34:49;10.57;;;2.00;;
25127;SDS011;13107;51.304;6.866;2023-07-13T06:38:53;8.88;;;2.10;;
25127;SDS011;13107;51.304;6.866;2023-07-13T06:42:54;10.32;;;2.20;;
25127;SDS011;13107;51.304;6.866;2023-07-13T06:46:56;7.12;;;2.03;;
25127;SDS011;13107;51.304;6.866;2023-07-13T06:50:58;8.30;;;2.15;;
25127;SDS011;13107;51.304;6.866;2023-07-13T06:55:00;7.53;;;2.45;;
25127;SDS011;13107;51.304;6.866;2023-07-13T06:59:02;8.18;;;2.20;;
25127;SDS011;13107;51.304;6.866;2023-07-13T07:03:04;10.02;;;2.15;;
25127;SDS011;13107;51.304;6.866;2023-07-13T07:07:06;9.93;;;2.42;;
25127;SDS011;13107;51.304;6.866;2023-07-13T07:11:11;11.70;;;2.80;;
25127;SDS011;13107;51.304;6.866;2023-07-13T07:15:14;9.43;;;1.92;;
25127;SDS011;13107;51.304;6.866;2023-07-13T07:19:17;8.40;;;2.45;;
25127;SDS011;13107;51.304;6.866;2023-07-13T07:23:19;7.68;;;2.33;;
25127;SDS011;13107;51.304;6.866;2023-07-13T07:27:20;10.82;;;2.70;;
25127;SDS011;13107;51.304;6.866;2023-07-13T07:31:25;10.68;;;2.53;;
25127;SDS011;13107;51.304;6.866;2023-07-13T07:35:30;10.73;;;2.67;;
25127;SDS011;13107;51.304;6.866;2023-07-13T07:39:36;10.10;;;3.10;;
25127;SDS011;13107;51.304;6.866;2023-07-13T07:43:43;9.60;;;3.03;;
25127;SDS011;13107;51.304;6.866;2023-07-13T07:47:45;12.27;;;2.47;;
25127;SDS011;13107;51.304;6.866;2023-07-13T07:51:47;14.25;;;2.53;;
25127;SDS011;13107;51.304;6.866;2023-07-13T07:55:49;5.80;;;2.10;;
25127;SDS011;13107;51.304;6.866;2023-07-13T07:59:55;7.93;;;2.40;;
25127;SDS011;13107;51.304;6.866;2023-07-13T08:04:00;9.10;;;2.42;;
25127;SDS011;13107;51.304;6.866;2023-07-13T08:08:04;9.13;;;2.70;;
25127;SDS011;13107;51.304;6.866;2023-07-13T08:12:06;8.80;;;2.40;;
25127;SDS011;13107;51.304;6.866;2023-07-13T08:16:11;8.75;;;2.55;;
25127;SDS011;13107;51.304;6.866;2023-07-13T08:20:13;10.75;;;2.60;;
25127;SDS011;13107;51.304;6.866;2023-07-13T08:24:15;11.55;;;2.20;;
25127;SDS011;13107;51.304;6.866;2023-07-13T08:28:20;8.30;;;2.53;;
25127;SDS011;13107;51.304;6.866;2023-07-13T08:32:23;7.90;;;2.28;;
25127;SDS011;13107;51.304;6.866;2023-07-13T08:36:25;9.40;;;2.37;;
25127;SDS011;13107;51.304;6.866;2023-07-13T08:40:28;13.35;;;2.70;;
25127;SDS011;13107;51.304;6.866;2023-07-13T08:49:14;12.50;;;2.15;;
25127;SDS011;13107;51.304;6.866;2023-07-13T08:53:17;8.60;;;2.50;;
25127;SDS011;13107;51.304;6.866;2023-07-13T08:57:21;7.35;;;2.35;;
25127;SDS011;13107;51.304;6.866;2023-07-13T09:05:50;8.65;;;2.22;;
25127;SDS011;13107;51.304;6.866;2023-07-13T09:18:37;9.05;;;2.72;;
25127;SDS011;13107;51.304;6.866;2023-07-13T09:22:45;8.50;;;2.35;;
25127;SDS011;13107;51.304;6.866;2023-07-13T09:26:48;8.60;;;2.47;;
25127;SDS011;13107;51.304;6.866;2023-07-13T09:30:58;10.23;;;2.55;;
25127;SDS011;13107;51.304;6.866;2023-07-13T09:35:09;8.75;;;2.33;;
25127;SDS011;13107;51.304;6.866;2023-07-13T09:39:14;7.35;;;2.62;;
25127;SDS011;13107;51.304;6.866;2023-07-13T09:43:30;6.97;;;2.37;;
25127;SDS011;13107;51.304;6.866;2023-07-13T09:47:33;7.97;;;2.20;;
25127;SDS011;13107;51.304;6.866;2023-07-13T09:51:40;9.68;;;2.50;;
25127;SDS011;13107;51.304;6.866;2023-07-13T09:55:46;8.35;;;1.90;;
25127;SDS011;13107;51.304;6.866;2023-07-13T09:59:54;8.15;;;2.10;;
25127;SDS011;13107;51.304;6.866;2023-07-13T10:03:57;7.80;;;1.83;;
25127;SDS011;13107;51.304;6.866;2023-07-13T10:07:59;4.72;;;1.80;;
25127;SDS011;13107;51.304;6.866;2023-07-13T10:12:01;8.65;;;2.25;;
25127;SDS011;13107;51.304;6.866;2023-07-13T10:16:04;11.57;;;2.78;;
25127;SDS011;13107;51.304;6.866;2023-07-13T10:20:07;6.28;;;1.70;;
25127;SDS011;13107;51.304;6.866;2023-07-13T10:24:15;7.35;;;1.75;;
25127;SDS011;13107;51.304;6.866;2023-07-13T10:28:27;5.85;;;1.80;;
25127;SDS011;13107;51.304;6.866;2023-07-13T10:32:33;9.10;;;1.42;;
25127;SDS011;13107;51.304;6.866;2023-07-13T10:36:44;10.18;;;2.25;;
25127;SDS011;13107;51.304;6.866;2023-07-13T10:40:55;6.95;;;1.75;;
25127;SDS011;13107;51.304;6.866;2023-07-13T10:45:20;5.72;;;1.50;;
25127;SDS011;13107;51.304;6.866;2023-07-13T10:49:23;9.20;;;1.90;;
25127;SDS011;13107;51.304;6.866;2023-07-13T10:53:28;7.82;;;1.70;;
25127;SDS011;13107;51.304;6.866;2023-07-13T10:57:31;6.57;;;1.50;;
25127;SDS011;13107;51.304;6.866;2023-07-13T11:01:54;7.10;;;1.92;;
25127;SDS011;13107;51.304;6.866;2023-07-13T11:10:45;8.88;;;1.95;;
25127;SDS011;13107;51.304;6.866;2023-07-13T11:23:17;5.47;;;1.60;;
25127;SDS011;13107;51.304;6.866;2023-07-13T11:31:51;7.28;;;1.70;;
25127;SDS011;13107;51.304;6.866;2023-07-13T11:36:13;3.65;;;1.20;;
25127;SDS011;13107;51.304;6.866;2023-07-13T11:44:29;5.80;;;1.60;;
25127;SDS011;13107;51.304;6.866;2023-07-13T11:48:35;4.90;;;1.42;;
25127;SDS011;13107;51.304;6.866;2023-07-13T11:52:39;6.45;;;1.60;;
25127;SDS011;13107;51.304;6.866;2023-07-13T11:56:41;5.00;;;1.50;;
25127;SDS011;13107;51.304;6.866;2023-07-13T12:00:43;2.78;;;1.17;;
25127;SDS011;13107;51.304;6.866;2023-07-13T12:04:46;9.73;;;1.30;;
25127;SDS011;13107;51.304;6.866;2023-07-13T12:08:48;5.87;;;1.50;;
25127;SDS011;13107;51.304;6.866;2023-07-13T12:12:53;6.35;;;1.48;;
25127;SDS011;13107;51.304;6.866;2023-07-13T12:16:57;2.65;;;1.33;;
25127;SDS011;13107;51.304;6.866;2023-07-13T12:20:59;3.22;;;1.10;;
25127;SDS011;13107;51.304;6.866;2023-07-13T12:25:01;5.32;;;1.40;;
25127;SDS011;13107;51.304;6.866;2023-07-13T12:29:04;4.82;;;1.37;;
25127;SDS011;13107;51.304;6.866;2023-07-13T12:33:11;4.43;;;1.10;;
25127;SDS011;13107;51.304;6.866;2023-07-13T12:37:13;7.68;;;1.20;;
25127;SDS011;13107;51.304;6.866;2023-07-13T12:41:16;6.12;;;1.30;;
25127;SDS011;13107;51.304;6.866;2023-07-13T12:45:23;7.75;;;1.33;;
25127;SDS011;13107;51.304;6.866;2023-07-13T12:49:28;4.53;;;1.10;;
25127;SDS011;13107;51.304;6.866;2023-07-13T12:53:34;4.40;;;1.15;;
25127;SDS011;13107;51.304;6.866;2023-07-13T12:58:04;5.97;;;1.27;;
25127;SDS011;13107;51.304;6.866;2023-07-13T13:02:26;6.20;;;1.20;;
25127;SDS011;13107;51.304;6.866;2023-07-13T13:06:36;4.47;;;1.00;;
25127;SDS011;13107;51.304;6.866;2023-07-13T13:10:38;6.70;;;1.17;;
25127;SDS011;13107;51.304;6.866;2023-07-13T13:14:40;5.90;;;1.23;;
25127;SDS011;13107;51.304;6.866;2023-07-13T13:18:42;3.78;;;1.70;;
25127;SDS011;13107;51.304;6.866;2023-07-13T13:22:44;5.95;;;1.40;;
25127;SDS011;13107;51.304;6.866;2023-07-13T13:26:46;4.95;;;1.00;;
25127;SDS011;13107;51.304;6.866;2023-07-13T13:30:50;3.55;;;1.30;;
25127;SDS011;13107;51.304;6.866;2023-07-13T13:34:52;4.07;;;1.00;;
25127;SDS011;13107;51.304;6.866;2023-07-13T13:38:55;2.80;;;1.05;;
25127;SDS011;13107;51.304;6.866;2023-07-13T13:42:56;4.50;;;1.40;;
25127;SDS011;13107;51.304;6.866;2023-07-13T13:47:02;4.53;;;1.35;;
25127;SDS011;13107;51.304;6.866;2023-07-13T13:51:11;3.50;;;1.00;;
25127;SDS011;13107;51.304;6.866;2023-07-13T13:55:24;5.30;;;1.23;;
25127;SDS011;13107;51.304;6.866;2023-07-13T13:59:26;3.25;;;1.08;;
25127;SDS011;13107;51.304;6.866;2023-07-13T14:03:28;4.55;;;1.50;;
25127;SDS011;13107;51.304;6.866;2023-07-13T14:07:30;4.68;;;1.20;;
25127;SDS011;13107;51.304;6.866;2023-07-13T14:11:32;2.12;;;0.95;;
25127;SDS011;13107;51.304;6.866;2023-07-13T14:15:34;3.22;;;1.12;;
25127;SDS011;13107;51.304;6.866;2023-07-13T14:19:36;2.05;;;0.98;;
25127;SDS011;13107;51.304;6.866;2023-07-13T14:23:38;4.87;;;1.20;;
25127;SDS011;13107;51.304;6.866;2023-07-13T14:27:41;3.58;;;1.10;;
25127;SDS011;13107;51.304;6.866;2023-07-13T14:31:44;5.70;;;1.30;;
25127;SDS011;13107;51.304;6.866;2023-07-13T14:35:46;4.62;;;1.45;;
25127;SDS011;13107;51.304;6.866;2023-07-13T14:39:50;6.22;;;1.10;;
25127;SDS011;13107;51.304;6.866;2023-07-13T14:43:53;4.87;;;1.40;;
25127;SDS011;13107;51.304;6.866;2023-07-13T14:47:55;3.83;;;1.20;;
25127;SDS011;13107;51.304;6.866;2023-07-13T14:52:03;7.00;;;1.60;;
25127;SDS011;13107;51.304;6.866;2023-07-13T14:56:13;6.18;;;1.60;;
25127;SDS011;13107;51.304;6.866;2023-07-13T15:00:17;5.28;;;1.40;;
25127;SDS011;13107;51.304;6.866;2023-07-13T15:04:20;5.45;;;1.62;;
25127;SDS011;13107;51.304;6.866;2023-07-13T15:08:22;5.20;;;1.55;;
25127;SDS011;13107;51.304;6.866;2023-07-13T15:12:25;5.28;;;1.33;;
25127;SDS011;13107;51.304;6.866;2023-07-13T15:16:26;7.07;;;1.50;;
25127;SDS011;13107;51.304;6.866;2023-07-13T15:20:29;4.70;;;1.30;;
25127;SDS011;13107;51.304;6.866;2023-07-13T15:24:34;5.55;;;1.40;;
25127;SDS011;13107;51.304;6.866;2023-07-13T15:28:38;4.37;;;1.30;;
25127;SDS011;13107;51.304;6.866;2023-07-13T15:32:44;5.40;;;1.40;;
25127;SDS011;13107;51.304;6.866;2023-07-13T15:36:47;6.62;;;1.40;;
25127;SDS011;13107;51.304;6.866;2023-07-13T15:40:49;3.85;;;1.50;;
25127;SDS011;13107;51.304;6.866;2023-07-13T15:44:52;5.62;;;1.60;;
25127;SDS011;13107;51.304;6.866;2023-07-13T15:48:54;6.70;;;1.40;;
25127;SDS011;13107;51.304;6.866;2023-07-13T15:52:59;8.15;;;1.70;;
25127;SDS011;13107;51.304;6.866;2023-07-13T15:57:03;5.05;;;1.27;;
25127;SDS011;13107;51.304;6.866;2023-07-13T16:01:10;4.78;;;1.17;;
25127;SDS011;13107;51.304;6.866;2023-07-13T16:05:12;5.60;;;1.90;;
25127;SDS011;13107;51.304;6.866;2023-07-13T16:09:18;4.37;;;1.90;;
25127;SDS011;13107;51.304;6.866;2023-07-13T16:13:23;5.15;;;1.77;;
25127;SDS011;13107;51.304;6.866;2023-07-13T16:17:26;5.95;;;1.40;;
25127;SDS011;13107;51.304;6.866;2023-07-13T16:21:30;3.47;;;1.42;;
25127;SDS011;13107;51.304;6.866;2023-07-13T16:25:42;7.78;;;1.70;;
25127;SDS011;13107;51.304;6.866;2023-07-13T16:29:45;5.85;;;1.70;;
25127;SDS011;13107;51.304;6.866;2023-07-13T16:33:47;6.10;;;1.15;;
25127;SDS011;13107;51.304;6.866;2023-07-13T16:37:49;5.45;;;1.30;;
25127;SDS011;13107;51.304;6.866;2023-07-13T16:42:03;6.65;;;1.35;;
25127;SDS011;13107;51.304;6.866;2023-07-13T16:46:07;4.15;;;1.45;;
25127;SDS011;13107;51.304;6.866;2023-07-13T16:50:13;5.40;;;1.45;;
25127;SDS011;13107;51.304;6.866;2023-07-13T16:54:17;3.25;;;1.37;;
25127;SDS011;13107;51.304;6.866;2023-07-13T16:58:20;5.20;;;1.30;;
25127;SDS011;13107;51.304;6.866;2023-07-13T17:06:28;5.57;;;1.50;;
25127;SDS011;13107;51.304;6.866;2023-07-13T17:10:31;3.45;;;1.17;;
25127;SDS011;13107;51.304;6.866;2023-07-13T17:14:33;3.28;;;1.20;;
25127;SDS011;13107;51.304;6.866;2023-07-13T17:18:37;3.10;;;1.20;;
25127;SDS011;13107;51.304;6.866;2023-07-13T17:22:39;3.58;;;1.10;;
25127;SDS011;13107;51.304;6.866;2023-07-13T17:26:41;3.25;;;1.30;;
25127;SDS011;13107;51.304;6.866;2023-07-13T17:30:43;3.95;;;1.17;;
25127;SDS011;13107;51.304;6.866;2023-07-13T17:34:46;5.05;;;1.45;;
25127;SDS011;13107;51.304;6.866;2023-07-13T17:38:48;4.55;;;1.90;;
25127;SDS011;13107;51.304;6.866;2023-07-13T17:42:52;3.50;;;0.98;;
25127;SDS011;13107;51.304;6.866;2023-07-13T17:46:58;2.25;;;1.08;;
25127;SDS011;13107;51.304;6.866;2023-07-13T17:51:01;2.37;;;1.20;;
25127;SDS011;13107;51.304;6.866;2023-07-13T17:55:08;3.70;;;0.90;;
25127;SDS011;13107;51.304;6.866;2023-07-13T17:59:22;4.87;;;1.45;;
25127;SDS011;13107;51.304;6.866;2023-07-13T18:03:25;5.65;;;1.15;;
25127;SDS011;13107;51.304;6.866;2023-07-13T18:07:35;3.22;;;0.93;;
25127;SDS011;13107;51.304;6.866;2023-07-13T18:11:37;4.12;;;1.33;;
25127;SDS011;13107;51.304;6.866;2023-07-13T18:15:39;3.53;;;1.12;;
25127;SDS011;13107;51.304;6.866;2023-07-13T18:19:45;3.22;;;1.10;;
25127;SDS011;13107;51.304;6.866;2023-07-13T18:23:48;3.67;;;1.20;;
25127;SDS011;13107;51.304;6.866;2023-07-13T18:27:50;3.72;;;1.20;;
25127;SDS011;13107;51.304;6.866;2023-07-13T18:31:53;2.97;;;1.15;;
25127;SDS011;13107;51.304;6.866;2023-07-13T18:35:58;4.62;;;1.25;;
25127;SDS011;13107;51.304;6.866;2023-07-13T18:40:02;2.87;;;1.15;;
25127;SDS011;13107;51.304;6.866;2023-07-13T18:44:08;4.20;;;1.13;;
25127;SDS011;13107;51.304;6.866;2023-07-13T18:48:11;2.70;;;1.12;;
25127;SDS011;13107;51.304;6.866;2023-07-13T18:52:19;3.50;;;1.58;;
25127;SDS011;13107;51.304;6.866;2023-07-13T18:56:22;2.60;;;1.30;;
25127;SDS011;13107;51.304;6.866;2023-07-13T19:00:24;3.20;;;1.40;;
25127;SDS011;13107;51.304;6.866;2023-07-13T19:04:30;6.35;;;1.52;;
25127;SDS011;13107;51.304;6.866;2023-07-13T19:08:32;4.18;;;1.23;;
25127;SDS011;13107;51.304;6.866;2023-07-13T19:12:34;5.60;;;1.37;;
25127;SDS011;13107;51.304;6.866;2023-07-13T19:16:36;2.87;;;1.30;;
25127;SDS011;13107;51.304;6.866;2023-07-13T19:20:39;2.58;;;1.42;;
25127;SDS011;13107;51.304;6.866;2023-07-13T19:24:42;7.60;;;4.50;;
25127;SDS011;13107;51.304;6.866;2023-07-13T19:28:44;5.55;;;2.83;;
25127;SDS011;13107;51.304;6.866;2023-07-13T19:32:47;4.18;;;1.30;;
25127;SDS011;13107;51.304;6.866;2023-07-13T19:36:50;6.68;;;1.50;;
25127;SDS011;13107;51.304;6.866;2023-07-13T19:41:05;6.05;;;1.87;;
25127;SDS011;13107;51.304;6.866;2023-07-13T19:45:19;11.45;;;5.35;;
25127;SDS011;13107;51.304;6.866;2023-07-13T19:49:22;5.47;;;3.28;;
25127;SDS011;13107;51.304;6.866;2023-07-13T19:53:24;4.35;;;1.37;;
25127;SDS011;13107;51.304;6.866;2023-07-13T19:57:27;6.68;;;2.65;;
25127;SDS011;13107;51.304;6.866;2023-07-13T20:01:29;4.25;;;2.85;;
25127;SDS011;13107;51.304;6.866;2023-07-13T20:05:33;9.52;;;4.93;;
25127;SDS011;13107;51.304;6.866;2023-07-13T20:09:37;7.32;;;2.17;;
25127;SDS011;13107;51.304;6.866;2023-07-13T20:13:44;4.37;;;1.90;;
25127;SDS011;13107;51.304;6.866;2023-07-13T20:17:47;4.22;;;1.87;;
25127;SDS011;13107;51.304;6.866;2023-07-13T20:21:52;7.47;;;4.18;;
25127;SDS011;13107;51.304;6.866;2023-07-13T20:25:54;2.85;;;1.58;;
25127;SDS011;13107;51.304;6.866;2023-07-13T20:29:56;6.22;;;1.85;;
25127;SDS011;13107;51.304;6.866;2023-07-13T20:34:00;5.65;;;2.10;;
25127;SDS011;13107;51.304;6.866;2023-07-13T20:38:03;5.28;;;2.35;;
25127;SDS011;13107;51.304;6.866;2023-07-13T20:42:10;3.70;;;1.55;;
25127;SDS011;13107;51.304;6.866;2023-07-13T20:46:13;5.87;;;1.52;;
25127;SDS011;13107;51.304;6.866;2023-07-13T20:54:27;6.12;;;1.80;;
25127;SDS011;13107;51.304;6.866;2023-07-13T20:58:29;4.78;;;2.20;;
25127;SDS011;13107;51.304;6.866;2023-07-13T21:02:31;3.25;;;1.70;;
25127;SDS011;13107;51.304;6.866;2023-07-13T21:06:34;3.87;;;1.60;;
25127;SDS011;13107;51.304;6.866;2023-07-13T21:10:36;5.90;;;1.80;;
25127;SDS011;13107;51.304;6.866;2023-07-13T21:14:38;5.12;;;3.47;;
25127;SDS011;13107;51.304;6.866;2023-07-13T21:18:40;5.55;;;2.12;;
25127;SDS011;13107;51.304;6.866;2023-07-13T21:22:42;5.22;;;2.00;;
25127;SDS011;13107;51.304;6.866;2023-07-13T21:26:44;5.70;;;1.73;;
25127;SDS011;13107;51.304;6.866;2023-07-13T21:30:46;4.72;;;2.10;;
25127;SDS011;13107;51.304;6.866;2023-07-13T21:34:48;3.15;;;1.77;;
25127;SDS011;13107;51.304;6.866;2023-07-13T21:38:53;6.25;;;2.12;;
25127;SDS011;13107;51.304;6.866;2023-07-13T21:42:58;4.68;;;1.80;;
25127;SDS011;13107;51.304;6.866;2023-07-13T21:47:00;3.60;;;2.00;;
25127;SDS011;13107;51.304;6.866;2023-07-13T21:51:04;4.25;;;1.92;;
25127;SDS011;13107;51.304;6.866;2023-07-13T21:55:19;6.00;;;2.28;;
25127;SDS011;13107;51.304;6.866;2023-07-13T21:59:24;6.20;;;2.10;;
25127;SDS011;13107;51.304;6.866;2023-07-13T22:03:29;4.32;;;2.10;;
25127;SDS011;13107;51.304;6.866;2023-07-13T22:07:33;3.28;;;2.30;;
25127;SDS011;13107;51.304;6.866;2023-07-13T22:11:35;3.62;;;2.33;;
25127;SDS011;13107;51.304;6.866;2023-07-13T22:15:37;5.55;;;2.47;;
25127;SDS011;13107;51.304;6.866;2023-07-13T22:19:39;3.95;;;2.45;;
25127;SDS011;13107;51.304;6.866;2023-07-13T22:23:41;6.50;;;2.30;;
25127;SDS011;13107;51.304;6.866;2023-07-13T22:27:44;5.18;;;2.35;;
25127;SDS011;13107;51.304;6.866;2023-07-13T22:31:46;8.27;;;2.30;;
25127;SDS011;13107;51.304;6.866;2023-07-13T22:35:48;6.87;;;2.53;;
25127;SDS011;13107;51.304;6.866;2023-07-13T22:39:52;3.62;;;1.85;;
25127;SDS011;13107;51.304;6.866;2023-07-13T22:43:54;7.82;;;2.50;;
25127;SDS011;13107;51.304;6.866;2023-07-13T22:47:56;7.22;;;2.22;;
25127;SDS011;13107;51.304;6.866;2023-07-13T22:52:01;5.87;;;2.47;;
25127;SDS011;13107;51.304;6.866;2023-07-13T22:56:04;6.22;;;2.30;;
25127;SDS011;13107;51.304;6.866;2023-07-13T23:00:06;4.87;;;2.00;;
25127;SDS011;13107;51.304;6.866;2023-07-13T23:08:18;5.62;;;2.42;;
25127;SDS011;13107;51.304;6.866;2023-07-13T23:12:20;6.15;;;2.53;;
25127;SDS011;13107;51.304;6.866;2023-07-13T23:16:22;3.05;;;2.25;;
25127;SDS011;13107;51.304;6.866;2023-07-13T23:20:32;5.78;;;1.92;;
25127;SDS011;13107;51.304;6.866;2023-07-13T23:24:35;6.28;;;2.03;;
25127;SDS011;13107;51.304;6.866;2023-07-13T23:28:37;3.55;;;2.22;;
25127;SDS011;13107;51.304;6.866;2023-07-13T23:32:39;3.53;;;2.30;;
25127;SDS011;13107;51.304;6.866;2023-07-13T23:36:41;6.57;;;2.60;;
25127;SDS011;13107;51.304;6.866;2023-07-13T23:40:43;5.18;;;2.90;;
25127;SDS011;13107;51.304;6.866;2023-07-13T23:44:45;5.47;;;2.33;;
25127;SDS011;13107;51.304;6.866;2023-07-13T23:48:47;5.68;;;2.95;;
25127;SDS011;13107;51.304;6.866;2023-07-13T23:52:49;2.92;;;2.15;;
25127;SDS011;13107;51.304;6.866;2023-07-13T23:56:51;5.55;;;2.37;;
